createdAt,value
2023-04-20T00:00:34.241Z,9.21
2023-04-20T00:03:01.846Z,9.20
2023-04-20T00:05:29.745Z,9.09
2023-04-20T00:07:56.910Z,9.12
2023-04-20T00:10:24.180Z,8.98
2023-04-20T00:12:51.465Z,9.01
2023-04-20T00:15:19.603Z,9.01
2023-04-20T00:17:47.127Z,8.99
2023-04-20T00:20:14.756Z,8.94
2023-04-20T00:22:41.903Z,8.91
2023-04-20T00:25:09.965Z,8.98
2023-04-20T00:27:37.430Z,8.91
2023-04-20T00:30:05.438Z,8.98
2023-04-20T00:32:32.615Z,8.99
2023-04-20T00:35:00.539Z,9.07
2023-04-20T00:37:27.705Z,8.98
2023-04-20T00:39:55.837Z,9.00
2023-04-20T00:42:23.362Z,9.01
2023-04-20T00:44:50.724Z,9.00
2023-04-20T00:47:17.933Z,9.02
2023-04-20T00:49:45.189Z,9.04
2023-04-20T00:52:12.588Z,9.05
2023-04-20T00:54:39.866Z,9.05
2023-04-20T00:57:07.040Z,9.07
2023-04-20T00:59:34.601Z,9.06
2023-04-20T01:02:01.924Z,9.03
2023-04-20T01:04:29.500Z,8.93
2023-04-20T01:06:57.269Z,8.95
2023-04-20T01:09:25.032Z,8.97
2023-04-20T01:11:52.158Z,8.94
2023-04-20T01:14:19.324Z,8.90
2023-04-20T01:16:47.116Z,8.93
2023-04-20T01:19:14.365Z,8.93
2023-04-20T01:21:41.720Z,8.96
2023-04-20T01:24:09.052Z,8.95
2023-04-20T01:26:36.183Z,8.95
2023-04-20T01:29:05.441Z,8.98
2023-04-20T01:31:32.941Z,8.95
2023-04-20T01:34:00.147Z,8.87
2023-04-20T01:36:27.351Z,8.91
2023-04-20T01:38:56.640Z,8.92
2023-04-20T01:41:23.845Z,8.89
2023-04-20T01:43:51.137Z,8.88
2023-04-20T01:46:18.631Z,8.85
2023-04-20T01:48:45.874Z,8.80
2023-04-20T01:51:13.001Z,8.77
2023-04-20T01:53:40.238Z,8.75
2023-04-20T01:56:10.506Z,8.81
2023-04-20T01:58:38.641Z,8.84
2023-04-20T02:01:06.009Z,8.82
2023-04-20T02:03:33.433Z,8.81
2023-04-20T02:06:00.941Z,8.78
2023-04-20T02:08:28.157Z,8.79
2023-04-20T02:10:55.369Z,8.78
2023-04-20T02:13:22.588Z,8.73
2023-04-20T02:15:49.714Z,8.70
2023-04-20T02:18:17.056Z,8.67
2023-04-20T02:20:45.845Z,8.70
2023-04-20T02:23:13.081Z,8.70
2023-04-20T02:25:40.249Z,8.68
2023-04-20T02:28:09.880Z,8.68
2023-04-20T02:30:37.054Z,8.67
2023-04-20T02:33:04.616Z,8.65
2023-04-20T02:35:32.067Z,8.65
2023-04-20T02:37:59.408Z,8.63
2023-04-20T02:40:27.487Z,8.63
2023-04-20T02:42:54.822Z,8.59
2023-04-20T02:45:24.693Z,8.47
2023-04-20T02:47:51.924Z,8.48
2023-04-20T02:50:19.381Z,8.48
2023-04-20T02:52:46.535Z,8.50
2023-04-20T02:55:14.399Z,8.46
2023-04-20T02:57:41.768Z,8.40
2023-04-20T03:00:09.562Z,8.44
2023-04-20T03:02:37.550Z,8.44
2023-04-20T03:05:05.537Z,8.48
2023-04-20T03:07:32.753Z,8.42
2023-04-20T03:09:59.982Z,8.35
2023-04-20T03:12:27.142Z,8.45
2023-04-20T03:14:54.994Z,8.48
2023-04-20T03:17:22.180Z,8.47
2023-04-20T03:19:49.930Z,8.48
2023-04-20T03:22:17.088Z,8.51
2023-04-20T03:24:44.243Z,8.46
2023-04-20T03:27:11.641Z,8.50
2023-04-20T03:29:38.880Z,8.51
2023-04-20T03:32:06.520Z,8.55
2023-04-20T03:34:33.954Z,8.56
2023-04-20T03:37:01.148Z,8.57
2023-04-20T03:39:28.359Z,8.52
2023-04-20T03:41:55.919Z,8.54
2023-04-20T03:44:23.024Z,8.55
2023-04-20T03:46:50.181Z,8.52
2023-04-20T03:49:17.796Z,8.55
2023-04-20T03:51:45.114Z,8.56
2023-04-20T03:54:12.204Z,8.56
2023-04-20T03:56:39.342Z,8.50
2023-04-20T03:59:06.530Z,8.41
2023-04-20T04:01:33.645Z,8.42
2023-04-20T04:04:01.388Z,8.42
2023-04-20T04:06:29.233Z,8.41
2023-04-20T04:08:56.415Z,8.44
2023-04-20T04:11:23.659Z,8.44
2023-04-20T04:13:50.905Z,8.41
2023-04-20T04:16:18.068Z,8.34
2023-04-20T04:18:45.393Z,8.32
2023-04-20T04:21:12.672Z,8.33
2023-04-20T04:23:39.982Z,8.33
2023-04-20T04:26:07.155Z,8.31
2023-04-20T04:28:34.545Z,8.28
2023-04-20T04:31:01.894Z,8.30
2023-04-20T04:33:29.297Z,8.33
2023-04-20T04:35:56.449Z,8.30
2023-04-20T04:38:25.748Z,8.28
2023-04-20T04:40:53.529Z,8.27
2023-04-20T04:43:20.876Z,8.27
2023-04-20T04:45:48.024Z,8.26
2023-04-20T04:48:15.323Z,8.25
2023-04-20T04:50:42.467Z,8.28
2023-04-20T04:53:09.643Z,8.25
2023-04-20T04:55:37.344Z,8.26
2023-04-20T04:58:04.495Z,8.27
2023-04-20T05:00:31.748Z,8.23
2023-04-20T05:02:59.275Z,8.18
2023-04-20T05:05:26.477Z,8.12
2023-04-20T05:07:53.676Z,8.15
2023-04-20T05:10:20.974Z,8.16
2023-04-20T05:12:48.252Z,8.16
2023-04-20T05:15:15.518Z,8.17
2023-04-20T05:17:42.759Z,8.19
2023-04-20T05:20:10.299Z,8.19
2023-04-20T05:22:38.134Z,8.19
2023-04-20T05:25:06.673Z,8.23
2023-04-20T05:27:34.834Z,8.26
2023-04-20T05:30:13.161Z,8.27
2023-04-20T05:32:49.168Z,8.28
2023-04-20T05:35:18.060Z,8.33
2023-04-20T05:37:45.362Z,8.31
2023-04-20T05:40:13.082Z,8.36
2023-04-20T05:42:40.723Z,8.38
2023-04-20T05:45:09.003Z,8.40
2023-04-20T05:47:36.325Z,8.43
2023-04-20T05:50:04.876Z,8.40
2023-04-20T05:52:32.137Z,8.43
2023-04-20T05:54:59.286Z,8.45
2023-04-20T05:57:26.477Z,8.43
2023-04-20T05:59:54.018Z,8.43
2023-04-20T06:02:21.327Z,8.41
2023-04-20T06:04:48.622Z,8.38
2023-04-20T06:07:15.860Z,8.36
2023-04-20T06:09:43.036Z,8.42
2023-04-20T06:12:10.417Z,8.45
2023-04-20T06:14:37.945Z,8.50
2023-04-20T06:17:05.111Z,8.52
2023-04-20T06:19:32.430Z,8.53
2023-04-20T06:22:00.954Z,8.55
2023-04-20T06:24:28.609Z,8.33
2023-04-20T06:26:55.793Z,8.34
2023-04-20T06:29:22.964Z,8.39
2023-04-20T06:31:50.357Z,8.43
2023-04-20T06:34:17.616Z,8.35
2023-04-20T06:36:44.856Z,8.24
2023-04-20T06:39:12.020Z,8.28
2023-04-20T06:41:39.292Z,8.31
2023-04-20T06:44:06.617Z,8.29
2023-04-20T06:46:34.394Z,8.32
2023-04-20T06:49:01.922Z,8.38
2023-04-20T06:51:29.968Z,8.37
2023-04-20T06:53:57.180Z,8.40
2023-04-20T06:56:24.333Z,8.39
2023-04-20T06:58:51.496Z,8.43
2023-04-20T07:01:18.702Z,8.47
2023-04-20T07:03:46.171Z,8.47
2023-04-20T07:06:13.769Z,8.51
2023-04-20T07:08:40.978Z,8.50
2023-04-20T07:11:08.348Z,8.52
2023-04-20T07:13:36.274Z,8.48
2023-04-20T07:16:03.785Z,8.38
2023-04-20T07:18:31.933Z,8.46
2023-04-20T07:21:00.439Z,8.51
2023-04-20T07:23:27.918Z,8.55
2023-04-20T07:25:55.094Z,8.58
2023-04-20T07:28:23.602Z,8.60
2023-04-20T07:30:50.799Z,8.66
2023-04-20T07:33:18.048Z,8.49
2023-04-20T07:35:45.197Z,8.47
2023-04-20T07:38:12.383Z,8.33
2023-04-20T07:40:40.020Z,8.13
2023-04-20T07:43:07.397Z,8.19
2023-04-20T07:45:34.752Z,8.24
2023-04-20T07:48:02.377Z,8.29
2023-04-20T07:50:29.632Z,8.35
2023-04-20T07:52:56.867Z,8.42
2023-04-20T07:55:24.197Z,8.42
2023-04-20T07:57:51.564Z,8.38
2023-04-20T08:00:19.696Z,8.44
2023-04-20T08:02:47.055Z,8.37
2023-04-20T08:05:14.741Z,8.41
2023-04-20T08:07:42.219Z,8.34
2023-04-20T08:10:10.584Z,8.45
2023-04-20T08:12:40.010Z,8.48
2023-04-20T08:15:08.795Z,8.42
2023-04-20T08:17:36.251Z,8.51
2023-04-20T08:20:03.782Z,8.50
2023-04-20T08:22:30.981Z,8.57
2023-04-20T08:24:58.369Z,8.59
2023-04-20T08:27:26.240Z,8.56
2023-04-20T08:29:53.475Z,8.56
2023-04-20T08:32:20.688Z,8.53
2023-04-20T08:34:47.889Z,8.59
2023-04-20T08:37:15.203Z,8.60
2023-04-20T08:39:42.579Z,8.34
2023-04-20T08:42:10.305Z,8.29
2023-04-20T08:44:37.815Z,8.16
2023-04-20T08:47:05.254Z,8.18
2023-04-20T08:49:34.234Z,8.18
2023-04-20T08:52:01.468Z,8.24
2023-04-20T08:54:28.635Z,8.26
2023-04-20T08:56:55.804Z,8.26
2023-04-20T08:59:23.051Z,8.23
2023-04-20T09:01:50.325Z,8.22
2023-04-20T09:04:20.542Z,7.97
2023-04-20T09:06:51.466Z,8.06
2023-04-20T09:09:20.727Z,8.03
2023-04-20T09:11:48.914Z,8.01
2023-04-20T09:14:17.317Z,8.18
2023-04-20T09:16:56.985Z,8.27
2023-04-20T09:19:25.729Z,8.07
2023-04-20T09:21:56.273Z,7.96
2023-04-20T09:24:37.531Z,7.96
2023-04-20T09:27:31.266Z,7.97
2023-04-20T09:30:02.145Z,7.97
2023-04-20T09:32:29.718Z,8.07
2023-04-20T09:34:57.633Z,8.17
2023-04-20T09:37:24.931Z,8.29
2023-04-20T09:39:55.423Z,8.26
2023-04-20T09:42:27.035Z,8.43
2023-04-20T09:44:55.769Z,8.45
2023-04-20T09:47:23.038Z,8.47
2023-04-20T09:49:50.845Z,8.60
2023-04-20T09:52:19.125Z,8.56
2023-04-20T09:54:46.860Z,8.58
2023-04-20T09:57:15.137Z,8.61
2023-04-20T09:59:47.612Z,8.71
2023-04-20T10:02:15.305Z,8.78
2023-04-20T10:05:00.545Z,8.76
2023-04-20T10:07:32.413Z,8.82
2023-04-20T10:10:13.942Z,8.85
2023-04-20T10:15:41.260Z,8.92
2023-04-20T10:18:23.933Z,8.97
2023-04-20T10:21:04.455Z,8.94
2023-04-20T10:23:32.264Z,9.01
2023-04-20T10:26:00.713Z,9.05
2023-04-20T10:28:49.676Z,9.08
2023-04-20T10:31:17.206Z,9.24
2023-04-20T10:33:56.419Z,9.25
2023-04-20T10:36:36.449Z,9.31
2023-04-20T10:39:19.677Z,9.36
2023-04-20T10:42:05.386Z,9.49
2023-04-20T10:44:34.228Z,9.61
2023-04-20T10:47:01.725Z,9.72
2023-04-20T10:49:30.404Z,9.88
2023-04-20T10:51:58.157Z,10.00
2023-04-20T10:54:25.784Z,10.08
2023-04-20T10:56:54.054Z,10.19
2023-04-20T10:59:24.512Z,10.22
2023-04-20T11:01:52.898Z,10.30
2023-04-20T11:04:34.470Z,10.38
2023-04-20T11:07:07.455Z,10.32
2023-04-20T11:09:36.149Z,10.47
2023-04-20T11:12:09.637Z,10.46
2023-04-20T11:14:50.970Z,10.35
2023-04-20T11:17:18.496Z,10.37
2023-04-20T11:19:46.038Z,10.28
2023-04-20T11:22:22.581Z,10.39
2023-04-20T11:24:49.942Z,10.50
2023-04-20T11:27:21.620Z,10.51
2023-04-20T11:29:58.301Z,10.52
2023-04-20T11:32:27.096Z,10.49
2023-04-20T11:35:06.897Z,10.57
2023-04-20T11:37:47.382Z,10.56
2023-04-20T11:40:16.644Z,10.52
2023-04-20T11:42:44.463Z,10.56
2023-04-20T11:45:12.021Z,10.65
2023-04-20T11:47:40.195Z,10.82
2023-04-20T11:50:08.844Z,10.86
2023-04-20T11:52:37.931Z,10.87
2023-04-20T11:55:10.376Z,10.85
2023-04-20T11:57:37.982Z,10.82
2023-04-20T12:00:06.621Z,10.81
2023-04-20T12:02:34.013Z,10.78
2023-04-20T12:05:05.360Z,10.79
2023-04-20T12:07:32.721Z,10.77
2023-04-20T12:10:00.046Z,10.82
2023-04-20T12:12:27.455Z,10.88
2023-04-20T12:14:54.721Z,10.93
2023-04-20T12:17:22.288Z,11.17
2023-04-20T12:19:49.590Z,11.27
2023-04-20T12:22:16.996Z,11.29
2023-04-20T12:24:44.229Z,11.34
2023-04-20T12:27:11.682Z,11.38
2023-04-20T12:29:38.935Z,11.42
2023-04-20T12:32:06.186Z,11.48
2023-04-20T12:34:33.478Z,11.48
2023-04-20T12:37:00.707Z,11.41
2023-04-20T12:39:28.137Z,11.35
2023-04-20T12:41:55.512Z,11.38
2023-04-20T12:44:23.008Z,11.40
2023-04-20T12:46:50.322Z,11.40
2023-04-20T12:49:17.874Z,11.45
2023-04-20T12:51:45.583Z,11.37
2023-04-20T12:54:12.878Z,11.40
2023-04-20T12:56:40.772Z,11.44
2023-04-20T12:59:07.986Z,11.43
2023-04-20T13:01:35.378Z,11.40
2023-04-20T13:04:03.037Z,11.37
2023-04-20T13:06:30.462Z,11.36
2023-04-20T13:08:57.694Z,11.31
2023-04-20T13:11:26.739Z,11.41
2023-04-20T13:13:54.568Z,11.35
2023-04-20T13:16:22.367Z,11.39
2023-04-20T13:18:49.761Z,11.46
2023-04-20T13:21:17.516Z,11.43
2023-04-20T13:23:44.889Z,11.37
2023-04-20T13:26:12.246Z,11.35
2023-04-20T13:28:39.882Z,11.33
2023-04-20T13:31:07.383Z,11.33
2023-04-20T13:33:34.731Z,11.23
2023-04-20T13:36:02.062Z,11.15
2023-04-20T13:38:29.470Z,11.14
2023-04-20T13:40:57.126Z,11.16
2023-04-20T13:43:26.038Z,11.10
2023-04-20T13:45:53.648Z,11.20
2023-04-20T13:48:20.854Z,11.25
2023-04-20T13:50:48.308Z,11.24
2023-04-20T13:53:15.658Z,11.23
2023-04-20T13:55:42.918Z,11.20
2023-04-20T13:58:10.338Z,11.11
2023-04-20T14:00:37.581Z,11.04
2023-04-20T14:03:05.295Z,10.99
2023-04-20T14:05:32.646Z,10.85
2023-04-20T14:07:59.894Z,10.77
2023-04-20T14:10:30.353Z,10.80
2023-04-20T14:12:57.711Z,10.74
2023-04-20T14:15:34.321Z,10.67
2023-04-20T14:18:05.256Z,10.66
2023-04-20T14:20:35.468Z,10.64
2023-04-20T14:23:03.044Z,10.54
2023-04-20T14:25:30.498Z,10.60
2023-04-20T14:27:58.072Z,10.69
2023-04-20T14:30:26.388Z,10.79
2023-04-20T14:33:00.854Z,10.83
2023-04-20T14:35:28.926Z,10.73
2023-04-20T14:37:56.743Z,10.72
2023-04-20T14:40:24.116Z,10.68
2023-04-20T14:42:51.407Z,10.63
2023-04-20T14:45:18.974Z,10.58
2023-04-20T14:47:46.505Z,10.53
2023-04-20T14:50:13.809Z,10.41
2023-04-20T14:52:41.059Z,10.30
2023-04-20T14:55:08.536Z,10.28
2023-04-20T14:57:35.865Z,10.25
2023-04-20T15:00:05.104Z,10.10
2023-04-20T15:02:32.815Z,10.09
2023-04-20T15:05:01.035Z,10.02
2023-04-20T15:07:30.581Z,10.10
2023-04-20T15:09:58.310Z,9.88
2023-04-20T15:12:25.689Z,9.85
2023-04-20T15:14:52.915Z,9.75
2023-04-20T15:17:20.598Z,9.83
2023-04-20T15:19:50.706Z,9.88
2023-04-20T15:22:19.042Z,9.88
2023-04-20T15:24:46.310Z,9.84
2023-04-20T15:27:13.696Z,9.78
2023-04-20T15:29:41.428Z,9.72
2023-04-20T15:32:08.857Z,9.81
2023-04-20T15:34:36.475Z,9.86
2023-04-20T15:37:03.978Z,9.83
2023-04-20T15:39:31.422Z,9.87
2023-04-20T15:41:58.641Z,9.81
2023-04-20T15:44:26.042Z,9.68
2023-04-20T15:46:53.866Z,9.73
2023-04-20T15:49:21.428Z,9.76
2023-04-20T15:51:48.665Z,9.85
2023-04-20T15:54:16.435Z,9.86
2023-04-20T15:56:43.834Z,9.85
2023-04-20T15:59:11.078Z,9.90
2023-04-20T16:01:38.473Z,9.95
2023-04-20T16:04:05.961Z,9.94
2023-04-20T16:06:33.668Z,9.81
2023-04-20T16:09:01.165Z,9.79
2023-04-20T16:11:28.399Z,9.83
2023-04-20T16:13:57.098Z,9.82
2023-04-20T16:16:24.514Z,9.81
2023-04-20T16:18:52.260Z,9.82
2023-04-20T16:21:20.318Z,9.81
2023-04-20T16:23:51.389Z,9.79
2023-04-20T16:26:18.837Z,9.77
2023-04-20T16:28:47.084Z,9.72
2023-04-20T16:31:14.562Z,9.68
2023-04-20T16:33:42.411Z,9.69
2023-04-20T16:36:10.252Z,9.70
2023-04-20T16:38:38.501Z,9.68
2023-04-20T16:41:06.308Z,9.65
2023-04-20T16:43:33.620Z,9.65
2023-04-20T16:46:00.922Z,9.64
2023-04-20T16:48:28.208Z,9.61
2023-04-20T16:50:57.306Z,9.52
2023-04-20T16:53:25.187Z,9.52
2023-04-20T16:55:52.470Z,9.54
2023-04-20T16:58:19.777Z,9.52
2023-04-20T17:00:50.112Z,9.55
2023-04-20T17:03:17.793Z,9.52
2023-04-20T17:05:45.603Z,9.50
2023-04-20T17:08:13.192Z,9.56
2023-04-20T17:10:40.792Z,9.56
2023-04-20T17:13:08.187Z,9.58
2023-04-20T17:15:38.323Z,9.57
2023-04-20T17:18:05.817Z,9.58
2023-04-20T17:20:33.163Z,9.57
2023-04-20T17:23:00.505Z,9.59
2023-04-20T17:25:27.838Z,9.61
2023-04-20T17:27:55.194Z,9.62
2023-04-20T17:30:22.831Z,9.58
2023-04-20T17:32:50.477Z,9.58
2023-04-20T17:35:17.925Z,9.57
2023-04-20T17:37:45.402Z,9.45
2023-04-20T17:40:13.132Z,9.45
2023-04-20T17:42:40.819Z,9.43
2023-04-20T17:45:08.685Z,9.37
2023-04-20T17:47:36.372Z,9.29
2023-04-20T17:50:04.215Z,9.27
2023-04-20T17:52:31.501Z,9.24
2023-04-20T17:54:59.015Z,9.23
2023-04-20T17:57:26.332Z,9.21
2023-04-20T17:59:53.573Z,9.20
2023-04-20T18:02:21.200Z,9.20
2023-04-20T18:04:49.477Z,9.14
2023-04-20T18:07:17.344Z,9.11
2023-04-20T18:09:45.344Z,9.10
2023-04-20T18:12:12.608Z,9.04
2023-04-20T18:14:40.719Z,9.02
2023-04-20T18:17:08.804Z,8.99
2023-04-20T18:19:36.530Z,8.96
2023-04-20T18:22:03.837Z,8.97
2023-04-20T18:24:31.538Z,8.87
2023-04-20T18:26:58.964Z,8.85
2023-04-20T18:29:29.870Z,8.90
2023-04-20T18:31:57.497Z,8.91
2023-04-20T18:34:24.946Z,8.95
2023-04-20T18:36:52.303Z,8.94
2023-04-20T18:39:19.584Z,8.94
2023-04-20T18:41:47.083Z,8.95
2023-04-20T18:44:14.440Z,8.92
2023-04-20T18:46:41.985Z,8.92
2023-04-20T18:49:10.844Z,8.91
2023-04-20T18:51:38.198Z,8.81
2023-04-20T18:54:05.772Z,8.75
2023-04-20T18:56:33.191Z,8.72
2023-04-20T18:59:00.784Z,8.71
2023-04-20T19:01:28.231Z,8.60
2023-04-20T19:03:55.736Z,8.58
2023-04-20T19:06:23.660Z,8.59
2023-04-20T19:08:51.096Z,8.52
2023-04-20T19:11:18.429Z,8.47
2023-04-20T19:13:45.925Z,8.54
2023-04-20T19:16:13.562Z,8.52
2023-04-20T19:18:40.953Z,8.51
2023-04-20T19:21:08.239Z,8.55
2023-04-20T19:23:35.474Z,8.52
2023-04-20T19:26:03.393Z,8.55
2023-04-20T19:28:31.069Z,8.50
2023-04-20T19:30:59.957Z,8.53
2023-04-20T19:33:27.263Z,8.50
2023-04-20T19:35:54.837Z,8.51
2023-04-20T19:38:22.882Z,8.47
2023-04-20T19:40:51.404Z,8.37
2023-04-20T19:43:18.756Z,8.36
2023-04-20T19:45:46.081Z,8.32
2023-04-20T19:48:13.383Z,8.30
2023-04-20T19:50:41.120Z,8.35
2023-04-20T19:53:08.613Z,8.35
2023-04-20T19:55:35.872Z,8.34
2023-04-20T19:58:05.048Z,8.35
2023-04-20T20:00:32.251Z,8.32
2023-04-20T20:03:00.185Z,8.33
2023-04-20T20:05:28.008Z,8.34
2023-04-20T20:07:55.699Z,8.35
2023-04-20T20:10:22.963Z,8.33
2023-04-20T20:12:50.416Z,8.34
2023-04-20T20:15:18.030Z,8.30
2023-04-20T20:17:45.375Z,8.24
2023-04-20T20:20:12.771Z,8.26
2023-04-20T20:22:39.968Z,8.24
2023-04-20T20:25:08.097Z,8.21
2023-04-20T20:27:35.421Z,8.19
2023-04-20T20:30:02.644Z,8.18
2023-04-20T20:32:30.119Z,8.19
2023-04-20T20:34:57.804Z,8.14
2023-04-20T20:37:25.019Z,8.15
2023-04-20T20:39:52.232Z,8.12
2023-04-20T20:42:19.478Z,8.11
2023-04-20T20:44:46.874Z,8.16
2023-04-20T20:47:14.279Z,8.16
2023-04-20T20:49:41.731Z,8.17
2023-04-20T20:52:08.956Z,8.18
2023-04-20T20:54:36.224Z,8.14
2023-04-20T20:57:03.526Z,8.18
2023-04-20T20:59:30.773Z,8.22
2023-04-20T21:01:58.122Z,8.22
2023-04-20T21:04:25.628Z,8.19
2023-04-20T21:06:53.001Z,8.20
2023-04-20T21:09:20.438Z,8.19
2023-04-20T21:11:48.314Z,8.11
2023-04-20T21:14:15.772Z,8.08
2023-04-20T21:16:43.088Z,8.04
2023-04-20T21:19:10.345Z,8.10
2023-04-20T21:21:37.642Z,8.09
2023-04-20T21:24:05.128Z,8.12
2023-04-20T21:26:32.350Z,8.10
2023-04-20T21:28:59.768Z,8.10
2023-04-20T21:31:27.090Z,8.07
2023-04-20T21:33:54.326Z,8.07
2023-04-20T21:36:21.620Z,8.08
2023-04-20T21:38:48.988Z,8.09
2023-04-20T21:41:16.653Z,8.08
2023-04-20T21:43:43.969Z,8.11
2023-04-20T21:46:17.806Z,8.11
2023-04-20T21:48:45.103Z,8.10
2023-04-20T21:51:17.489Z,8.08
2023-04-20T21:53:45.260Z,8.10
2023-04-20T21:56:12.783Z,8.07
2023-04-20T21:58:40.166Z,8.06
2023-04-20T22:01:07.909Z,8.06
2023-04-20T22:03:36.616Z,8.02
2023-04-20T22:06:05.046Z,8.04
2023-04-20T22:08:32.335Z,8.04
2023-04-20T22:10:59.829Z,8.06
2023-04-20T22:13:27.016Z,8.04
2023-04-20T22:15:54.464Z,8.06
2023-04-20T22:18:21.675Z,8.04
2023-04-20T22:20:49.196Z,8.03
2023-04-20T22:23:17.105Z,7.98
2023-04-20T22:25:44.425Z,8.01
2023-04-20T22:28:12.169Z,8.03
2023-04-20T22:30:39.447Z,8.03
2023-04-20T22:33:06.773Z,8.04
2023-04-20T22:35:34.069Z,8.04
2023-04-20T22:38:01.300Z,8.08
2023-04-20T22:40:28.760Z,7.99
2023-04-20T22:42:55.986Z,8.00
2023-04-20T22:45:23.230Z,8.01
2023-04-20T22:47:50.460Z,8.00
2023-04-20T22:50:17.851Z,7.97
2023-04-20T22:52:45.118Z,7.96
2023-04-20T22:55:12.552Z,7.98
2023-04-20T22:57:39.803Z,7.99
2023-04-20T23:00:09.042Z,8.00
2023-04-20T23:02:37.633Z,8.00
2023-04-20T23:05:06.430Z,7.95
2023-04-20T23:07:33.951Z,7.88
2023-04-20T23:10:01.235Z,7.89
2023-04-20T23:12:28.793Z,7.89
2023-04-20T23:14:56.581Z,7.90
2023-04-20T23:17:24.086Z,7.86
2023-04-20T23:19:51.346Z,7.88
2023-04-20T23:22:19.148Z,7.92
2023-04-20T23:24:46.405Z,7.91
2023-04-20T23:27:13.753Z,7.90
2023-04-20T23:29:41.167Z,7.87
2023-04-20T23:32:08.394Z,7.89
2023-04-20T23:34:35.682Z,7.89
2023-04-20T23:37:03.092Z,7.82
2023-04-20T23:39:30.339Z,7.84
2023-04-20T23:41:58.514Z,7.84
2023-04-20T23:44:25.888Z,7.77
2023-04-20T23:46:53.101Z,7.81
2023-04-20T23:49:20.765Z,7.82
2023-04-20T23:51:48.190Z,7.79
2023-04-20T23:54:15.467Z,7.79
2023-04-20T23:56:42.742Z,7.82
2023-04-20T23:59:09.948Z,7.73
